GQPA

Atar International Airport

Atar, Mauritania
METAR GQPA 171200Z 05012KT 360V080 8000 NSC 22/10 Q1019
Observed Flight Rules
Feb-17 @ 12:00 UTC (10 hours ago) Marginal Visual Flight Rules
Wind Visibility Clouds
50° at 12 knots 7,998 meters
  • Clear skies
Temperatures Readings
Current 22°C / 72°F
Dewpoint 10°C / 50°F
Humidity 47%
Altimeter 30.09" Hg
Pressure 1019 hPa
Elevation 224
METAR GQPA 171200Z 05012KT 360V080 8000 NSC 22/10 Q1019
Observed Flight Rules
Feb-17 @ 12:00 UTC
(10 hours ago)
MVFR
Wind Visibility
50° at 12 knots 7,998 meters
Clouds
  • Clear skies
Temperature Dewpoint
22°C / 72°F 10°C / 50°F
Humidity Altimeter Pressure
47% 30.09" Hg 1019 hPa